Solana — WCY5602 — position and weather

sailwx.info

Track history (hours):
 
Tides and Currents Weather Stations Pressure Air Temp Water Temp Dewpoint Dewpoint Depression Visibility Wind Speed Wind Dir Waves Ship Positions

Solana

Owner: TAURUS MARINE, SAN FRANCISCO, CA. More information available from US FCC via Universal Licensing System and Coast Guard Vessel Documentation Center.

Last reported at 2016-May-28 01:33 UTC. Time now 2016-May-28 02:08 UTC.
Position N 47°39' W 122°20'.

Length 21 m; draft 3 m.

Type: Tug. MMSI: 366969740.

Date/timePositionNaut miles runAvg speedWind from/ knotsBaromVisibWave heightAir tempDewpointWater temp
2016-May-28 01:33N 47°39' W 122°20'0 0.0
2016-May-28 00:33N 47°39' W 122°20'0 0.0
2016-May-27 23:33N 47°39' W 122°20'0 0.0
2016-May-27 22:33N 47°39' W 122°20'0 0.0
2016-May-27 21:33N 47°39' W 122°20'0 0.0
2016-May-27 20:30N 47°39' W 122°20'0 0.0
2016-May-27 19:33N 47°39' W 122°20'0 0.0
2016-May-27 18:33N 47°39' W 122°20'3 3.4
2016-May-27 17:33N 47°39' W 122°15'0 0.5
2016-May-27 16:32N 47°39' W 122°15'6 6.2
2016-May-27 15:33N 47°45' W 122°16'1 1.0
2016-May-27 14:32N 47°45' W 122°15'5 5.2
2016-May-27 13:33N 47°40' W 122°15'4 4.1
2016-May-27 12:33N 47°39' W 122°20'0 0.0
2016-May-27 11:34N 47°39' W 122°20'0 0.0
2016-May-27 10:33N 47°39' W 122°20'0 0.0
2016-May-27 09:34N 47°39' W 122°20'0 0.0
2016-May-27 08:34N 47°39' W 122°20'0 0.0
2016-May-27 07:34N 47°39' W 122°20'0 0.0
2016-May-27 06:33N 47°39' W 122°20'0 0.0
2016-May-27 05:33N 47°39' W 122°20'0 0.0
2016-May-27 04:34N 47°39' W 122°20'0 0.0
2016-May-27 03:33N 47°39' W 122°20'0 0.0
2016-May-27 02:33N 47°39' W 122°20'0 0.0
2016-May-27 01:11N 47°39' W 122°20'0 0.0
2016-May-27 00:33N 47°39' W 122°20'0 0.0
2016-May-26 23:33N 47°39' W 122°20'0 0.0
2016-May-26 22:34N 47°39' W 122°20'0 0.0
2016-May-26 21:34N 47°39' W 122°20'0 0.0
2016-May-26 20:33N 47°39' W 122°20'3 3.2
2016-May-26 19:33N 47°38' W 122°16'1 0.6
2016-May-26 18:33N 47°38' W 122°15'1 1.0
2016-May-26 17:32N 47°38' W 122°16'1 0.6
2016-May-26 16:33N 47°39' W 122°15'0 0.1
2016-May-26 15:33N 47°38' W 122°16'0 0.0
2016-May-26 14:33N 47°38' W 122°16'0 0.0
2016-May-26 13:31N 47°39' W 122°15'5 2.5
2016-May-26 11:33N 47°43' W 122°16'5 5.3
2016-May-26 10:33N 47°39' W 122°20'4 4.5
2016-May-26 09:33N 47°40' W 122°26'7 6.8
2016-May-26 08:34N 47°34' W 122°21'0 0.0
2016-May-25 10:33N 47°34' W 122°21'0 0.0
2016-May-25 09:33N 47°34' W 122°21'0 0.0
2016-May-25 06:32N 47°34' W 122°21'4 3.7
2016-May-25 05:33N 47°35' W 122°26'4 3.9
2016-May-25 04:33N 47°34' W 122°31'7 7.0
2016-May-25 03:33N 47°41' W 122°28'8 7.8
2016-May-25 02:33N 47°48' W 122°25'8 8.4
2016-May-25 01:33N 47°56' W 122°21'8 7.9
2016-May-25 00:31N 48°04' W 122°25'16 7.3
2016-May-24 22:21N 48°17' W 122°37'0 0.3
2016-May-24 21:32N 48°17' W 122°37'25 1.7
2016-May-24 06:32N 47°54' W 122°21'4 4.2
2016-May-24 05:33N 47°51' W 122°24'4 4.2
2016-May-24 04:33N 47°47' W 122°25'5 4.6
2016-May-24 03:33N 47°42' W 122°27'4 4.3
2016-May-24 02:33N 47°38' W 122°27'5 4.6
2016-May-24 01:33N 47°34' W 122°31'1 1.5
2016-May-24 00:33N 47°34' W 122°28'5 5.0
2016-May-23 23:33N 47°35' W 122°21'0 0.0
2016-May-23 22:33N 47°35' W 122°21'1 1.1
2016-May-23 21:33N 47°34' W 122°21'  
2016-May-21 02:33N 47°34' W 122°21'3 3.4
2016-May-21 01:33N 47°36' W 122°25'5 5.1
2016-May-21 00:33N 47°34' W 122°32'7 7.0
2016-May-20 23:33N 47°36' W 122°22'1 1.3
2016-May-20 22:33N 47°35' W 122°21'1 1.2
2016-May-20 21:33N 47°34' W 122°21'  
Track history (hours):
 
Tides and Currents Weather Stations Pressure Air Temp Water Temp Dewpoint Dewpoint Depression Visibility Wind Speed Wind Dir Waves Ship Positions

Solana

Owner: TAURUS MARINE, SAN FRANCISCO, CA. More information available from US FCC via Universal Licensing System and Coast Guard Vessel Documentation Center.

Last reported at 2016-May-28 01:33 UTC. Time now 2016-May-28 02:08 UTC.
Position N 47°39' W 122°20'.

Length 21 m; draft 3 m.

Type: Tug. MMSI: 366969740.

Date/timePositionNaut miles runAvg speedWind from/ knotsBaromVisibWave heightAir tempDewpointWater temp
2016-May-28 01:33N 47°39' W 122°20'0 0.0
2016-May-28 00:33N 47°39' W 122°20'0 0.0
2016-May-27 23:33N 47°39' W 122°20'0 0.0
2016-May-27 22:33N 47°39' W 122°20'0 0.0
2016-May-27 21:33N 47°39' W 122°20'0 0.0
2016-May-27 20:30N 47°39' W 122°20'0 0.0
2016-May-27 19:33N 47°39' W 122°20'0 0.0
2016-May-27 18:33N 47°39' W 122°20'3 3.4
2016-May-27 17:33N 47°39' W 122°15'0 0.5
2016-May-27 16:32N 47°39' W 122°15'6 6.2
2016-May-27 15:33N 47°45' W 122°16'1 1.0
2016-May-27 14:32N 47°45' W 122°15'5 5.2
2016-May-27 13:33N 47°40' W 122°15'4 4.1
2016-May-27 12:33N 47°39' W 122°20'0 0.0
2016-May-27 11:34N 47°39' W 122°20'0 0.0
2016-May-27 10:33N 47°39' W 122°20'0 0.0
2016-May-27 09:34N 47°39' W 122°20'0 0.0
2016-May-27 08:34N 47°39' W 122°20'0 0.0
2016-May-27 07:34N 47°39' W 122°20'0 0.0
2016-May-27 06:33N 47°39' W 122°20'0 0.0
2016-May-27 05:33N 47°39' W 122°20'0 0.0
2016-May-27 04:34N 47°39' W 122°20'0 0.0
2016-May-27 03:33N 47°39' W 122°20'0 0.0
2016-May-27 02:33N 47°39' W 122°20'0 0.0
2016-May-27 01:11N 47°39' W 122°20'0 0.0
2016-May-27 00:33N 47°39' W 122°20'0 0.0
2016-May-26 23:33N 47°39' W 122°20'0 0.0
2016-May-26 22:34N 47°39' W 122°20'0 0.0
2016-May-26 21:34N 47°39' W 122°20'0 0.0
2016-May-26 20:33N 47°39' W 122°20'3 3.2
2016-May-26 19:33N 47°38' W 122°16'1 0.6
2016-May-26 18:33N 47°38' W 122°15'1 1.0
2016-May-26 17:32N 47°38' W 122°16'1 0.6
2016-May-26 16:33N 47°39' W 122°15'0 0.1
2016-May-26 15:33N 47°38' W 122°16'0 0.0
2016-May-26 14:33N 47°38' W 122°16'0 0.0
2016-May-26 13:31N 47°39' W 122°15'5 2.5
2016-May-26 11:33N 47°43' W 122°16'5 5.3
2016-May-26 10:33N 47°39' W 122°20'4 4.5
2016-May-26 09:33N 47°40' W 122°26'7 6.8
2016-May-26 08:34N 47°34' W 122°21'0 0.0
2016-May-25 10:33N 47°34' W 122°21'0 0.0
2016-May-25 09:33N 47°34' W 122°21'0 0.0
2016-May-25 06:32N 47°34' W 122°21'4 3.7
2016-May-25 05:33N 47°35' W 122°26'4 3.9
2016-May-25 04:33N 47°34' W 122°31'7 7.0
2016-May-25 03:33N 47°41' W 122°28'8 7.8
2016-May-25 02:33N 47°48' W 122°25'8 8.4
2016-May-25 01:33N 47°56' W 122°21'8 7.9
2016-May-25 00:31N 48°04' W 122°25'16 7.3
2016-May-24 22:21N 48°17' W 122°37'0 0.3
2016-May-24 21:32N 48°17' W 122°37'25 1.7
2016-May-24 06:32N 47°54' W 122°21'4 4.2
2016-May-24 05:33N 47°51' W 122°24'4 4.2
2016-May-24 04:33N 47°47' W 122°25'5 4.6
2016-May-24 03:33N 47°42' W 122°27'4 4.3
2016-May-24 02:33N 47°38' W 122°27'5 4.6
2016-May-24 01:33N 47°34' W 122°31'1 1.5
2016-May-24 00:33N 47°34' W 122°28'5 5.0
2016-May-23 23:33N 47°35' W 122°21'0 0.0
2016-May-23 22:33N 47°35' W 122°21'1 1.1
2016-May-23 21:33N 47°34' W 122°21'  
2016-May-21 02:33N 47°34' W 122°21'3 3.4
2016-May-21 01:33N 47°36' W 122°25'5 5.1
2016-May-21 00:33N 47°34' W 122°32'7 7.0
2016-May-20 23:33N 47°36' W 122°22'1 1.3
2016-May-20 22:33N 47°35' W 122°21'1 1.2
2016-May-20 21:33N 47°34' W 122°21'  

Dump ship's entire track history